createdAt,value
2022-09-28T00:01:29.929Z,1.63
2022-09-28T00:03:59.951Z,1.40
2022-09-28T00:06:30.436Z,1.37
2022-09-28T00:08:59.425Z,1.30
2022-09-28T00:11:29.708Z,1.88
2022-09-28T00:14:00.428Z,1.33
2022-09-28T00:16:31.860Z,1.30
2022-09-28T00:19:00.887Z,1.52
2022-09-28T00:21:31.553Z,1.50
2022-09-28T00:24:15.872Z,1.50
2022-09-28T00:26:49.371Z,1.45
2022-09-28T00:29:21.159Z,1.50
2022-09-28T00:31:52.652Z,1.40
2022-09-28T00:34:22.100Z,1.67
2022-09-28T00:36:50.720Z,1.48
2022-09-28T00:39:19.779Z,1.23
2022-09-28T00:41:49.804Z,1.20
2022-09-28T00:44:44.061Z,1.30
2022-09-28T00:47:33.594Z,1.50
2022-09-28T00:50:05.090Z,1.58
2022-09-28T00:52:37.555Z,1.00
2022-09-28T00:55:10.093Z,1.25
2022-09-28T00:57:43.988Z,1.48
2022-09-28T01:00:14.768Z,1.33
2022-09-28T01:02:44.357Z,1.75
2022-09-28T01:05:14.323Z,1.48
2022-09-28T01:07:45.253Z,1.58
2022-09-28T01:10:14.682Z,1.60
2022-09-28T01:12:44.613Z,1.88
2022-09-28T01:15:14.950Z,1.97
2022-09-28T01:17:59.328Z,1.83
2022-09-28T01:20:52.849Z,1.20
2022-09-28T01:23:55.898Z,1.20
2022-09-28T01:26:47.075Z,1.23
2022-09-28T01:29:23.810Z,1.60
2022-09-28T01:32:02.805Z,1.75
2022-09-28T01:34:39.113Z,1.17
2022-09-28T01:37:12.731Z,1.75
2022-09-28T01:39:45.584Z,1.98
2022-09-28T01:42:21.344Z,1.70
2022-09-28T01:44:53.467Z,2.10
2022-09-28T01:47:25.395Z,1.92
2022-09-28T01:50:00.685Z,2.88
2022-09-28T01:52:35.309Z,2.10
2022-09-28T01:55:11.105Z,2.25
2022-09-28T01:57:46.968Z,2.38
2022-09-28T02:00:19.697Z,1.90
2022-09-28T02:02:56.469Z,2.50
2022-09-28T02:05:38.128Z,2.50
2022-09-28T02:08:10.819Z,2.30
2022-09-28T02:10:43.907Z,2.35
2022-09-28T02:13:18.586Z,2.05
2022-09-28T02:15:53.261Z,1.73
2022-09-28T02:18:21.849Z,1.52
2022-09-28T02:20:58.147Z,1.73
2022-09-28T02:23:30.245Z,1.85
2022-09-28T02:26:03.406Z,1.80
2022-09-28T02:28:34.436Z,1.20
2022-09-28T02:31:03.454Z,1.17
2022-09-28T02:33:37.340Z,1.20
2022-09-28T02:36:06.493Z,0.90
2022-09-28T02:38:39.872Z,1.35
2022-09-28T02:41:20.540Z,1.25
2022-09-28T02:44:00.981Z,1.20
2022-09-28T02:46:35.749Z,1.20
2022-09-28T02:49:23.488Z,1.10
2022-09-28T02:52:16.716Z,0.88
2022-09-28T02:55:08.268Z,1.13
2022-09-28T02:57:48.384Z,1.17
2022-09-28T03:00:21.459Z,1.17
2022-09-28T03:03:00.640Z,1.08
2022-09-28T03:05:39.517Z,0.73
2022-09-28T03:08:15.766Z,0.93
2022-09-28T03:10:51.100Z,1.70
2022-09-28T03:13:20.225Z,1.15
2022-09-28T03:15:50.503Z,1.50
2022-09-28T03:20:49.922Z,1.65
2022-09-28T03:23:25.852Z,1.17
2022-09-28T03:25:55.061Z,1.38
2022-09-28T03:28:24.145Z,1.48
2022-09-28T03:30:54.535Z,1.20
2022-09-28T03:33:23.723Z,0.50
2022-09-28T03:35:53.562Z,2.30
2022-09-28T03:38:23.145Z,0.70
2022-09-28T03:40:55.946Z,2.67
2022-09-28T03:43:29.445Z,0.55
2022-09-28T03:46:03.586Z,0.85
2022-09-28T03:48:37.305Z,0.80
2022-09-28T03:51:09.486Z,2.07
2022-09-28T03:53:38.682Z,2.53
2022-09-28T03:56:10.228Z,0.20
2022-09-28T03:58:38.941Z,0.20
2022-09-28T04:01:16.475Z,0.38
2022-09-28T04:03:47.981Z,0.80
2022-09-28T04:06:16.608Z,0.73
2022-09-28T04:08:45.380Z,1.20
2022-09-28T04:11:14.128Z,1.00
2022-09-28T04:13:42.963Z,0.63
2022-09-28T04:16:18.041Z,0.85
2022-09-28T04:18:58.167Z,0.80
2022-09-28T04:21:45.621Z,0.70
2022-09-28T04:24:16.329Z,0.93
2022-09-28T04:26:45.140Z,0.88
2022-09-28T04:29:16.686Z,1.13
2022-09-28T04:34:43.712Z,0.90
2022-09-28T04:37:13.304Z,1.00
2022-09-28T04:39:45.127Z,1.30
2022-09-28T04:42:19.234Z,1.17
2022-09-28T04:44:50.462Z,1.35
2022-09-28T04:47:20.669Z,1.15
2022-09-28T04:50:01.429Z,1.23
2022-09-28T04:52:33.766Z,0.90
2022-09-28T04:55:02.885Z,1.05
2022-09-28T04:57:32.161Z,1.02
2022-09-28T05:00:01.168Z,1.10
2022-09-28T05:02:32.766Z,1.08
2022-09-28T05:05:20.929Z,1.20
2022-09-28T05:08:06.198Z,1.30
2022-09-28T05:10:35.082Z,1.15
2022-09-28T05:13:04.044Z,1.25
2022-09-28T05:15:32.881Z,1.40
2022-09-28T05:18:05.584Z,1.15
2022-09-28T05:20:55.981Z,1.15
2022-09-28T05:23:24.803Z,1.77
2022-09-28T05:26:02.713Z,1.52
2022-09-28T05:28:34.265Z,1.33
2022-09-28T05:31:21.850Z,1.45
2022-09-28T05:34:15.291Z,1.45
2022-09-28T05:36:46.011Z,1.63
2022-09-28T05:39:14.836Z,1.80
2022-09-28T05:41:43.661Z,2.20
2022-09-28T05:44:12.847Z,2.42
2022-09-28T05:46:41.638Z,2.40
2022-09-28T05:49:11.974Z,2.30
2022-09-28T05:51:42.292Z,2.92
2022-09-28T05:54:11.466Z,2.47
2022-09-28T05:56:43.525Z,3.08
2022-09-28T05:59:13.646Z,2.67
2022-09-28T06:01:43.219Z,2.83
2022-09-28T06:04:13.130Z,2.63
2022-09-28T06:06:45.545Z,2.42
2022-09-28T06:09:14.508Z,2.33
2022-09-28T06:12:09.580Z,3.08
2022-09-28T06:14:48.961Z,2.85
2022-09-28T06:17:17.761Z,2.92
2022-09-28T06:19:53.480Z,2.65
2022-09-28T06:22:29.213Z,2.72
2022-09-28T06:25:05.671Z,2.65
2022-09-28T06:27:36.199Z,2.42
2022-09-28T06:30:06.059Z,15.30
2022-09-28T06:32:34.611Z,3.72
2022-09-28T06:35:03.454Z,4.72
2022-09-28T06:37:33.727Z,2.75
2022-09-28T06:40:03.969Z,3.03
2022-09-28T06:42:32.928Z,2.88
2022-09-28T06:45:32.492Z,2.33
2022-09-28T06:48:25.995Z,2.75
2022-09-28T06:50:55.271Z,2.67
2022-09-28T06:53:36.046Z,2.63
2022-09-28T06:56:33.074Z,2.28
2022-09-28T06:59:02.191Z,2.40
2022-09-28T07:01:31.070Z,2.38
2022-09-28T07:04:07.883Z,2.65
2022-09-28T07:06:57.407Z,2.47
2022-09-28T07:09:51.235Z,2.25
2022-09-28T07:12:40.146Z,2.33
2022-09-28T07:15:33.804Z,2.60
2022-09-28T07:18:04.443Z,2.72
2022-09-28T07:20:45.576Z,1.77
2022-09-28T07:23:20.088Z,2.55
2022-09-28T07:26:09.418Z,2.72
2022-09-28T07:28:56.847Z,3.22
2022-09-28T07:31:51.566Z,2.53
2022-09-28T07:34:43.953Z,3.00
2022-09-28T07:37:23.784Z,3.20
2022-09-28T07:40:09.871Z,3.38
2022-09-28T07:42:41.873Z,2.95
2022-09-28T07:45:12.692Z,3.15
2022-09-28T07:47:41.634Z,3.20
2022-09-28T07:50:29.167Z,2.83
2022-09-28T07:53:02.726Z,3.67
2022-09-28T07:55:57.243Z,4.50
2022-09-28T07:58:48.990Z,4.20
2022-09-28T08:01:43.748Z,3.58
2022-09-28T08:04:15.481Z,3.47
2022-09-28T08:06:45.981Z,3.05
2022-09-28T08:09:15.521Z,2.83
2022-09-28T08:12:04.345Z,5.05
2022-09-28T08:14:57.124Z,3.58
2022-09-28T08:17:37.204Z,4.07
2022-09-28T08:20:27.484Z,3.55
2022-09-28T08:22:57.147Z,3.30
2022-09-28T08:25:26.180Z,2.63
2022-09-28T08:27:56.483Z,3.15
2022-09-28T08:30:27.960Z,2.67
2022-09-28T08:33:15.787Z,3.28
2022-09-28T08:35:45.005Z,3.65
2022-09-28T08:38:25.674Z,3.30
2022-09-28T08:41:20.591Z,3.13
2022-09-28T08:44:25.182Z,3.40
2022-09-28T08:47:33.725Z,2.88
2022-09-28T08:50:27.403Z,3.15
2022-09-28T08:53:15.192Z,2.90
2022-09-28T08:56:07.785Z,3.00
2022-09-28T08:58:41.166Z,3.00
2022-09-28T09:01:16.864Z,3.35
2022-09-28T09:03:50.457Z,2.78
2022-09-28T09:07:31.307Z,2.55
2022-09-28T09:10:20.164Z,2.83
2022-09-28T09:13:03.769Z,2.60
2022-09-28T09:15:48.444Z,3.55
2022-09-28T09:18:34.423Z,2.75
2022-09-28T09:21:37.710Z,2.63
2022-09-28T09:24:19.887Z,2.30
2022-09-28T09:26:55.963Z,2.30
2022-09-28T09:29:33.647Z,2.80
2022-09-28T09:32:16.549Z,2.53
2022-09-28T09:35:06.443Z,3.05
2022-09-28T09:38:23.680Z,3.03
2022-09-28T09:41:23.265Z,1.67
2022-09-28T09:44:41.741Z,3.15
2022-09-28T09:47:36.060Z,2.72
2022-09-28T09:50:30.214Z,2.35
2022-09-28T09:53:04.883Z,2.72
2022-09-28T09:55:42.263Z,2.63
2022-09-28T09:58:35.762Z,2.85
2022-09-28T10:01:21.470Z,2.10
2022-09-28T10:04:34.060Z,2.65
2022-09-28T10:07:21.508Z,1.88
2022-09-28T10:09:52.280Z,2.28
2022-09-28T10:12:36.285Z,2.38
2022-09-28T10:15:08.120Z,2.40
2022-09-28T10:17:49.260Z,2.28
2022-09-28T10:20:50.525Z,2.17
2022-09-28T10:23:31.450Z,1.90
2022-09-28T10:26:07.425Z,2.22
2022-09-28T10:28:44.365Z,2.42
2022-09-28T10:31:35.631Z,2.10
2022-09-28T10:34:06.147Z,2.00
2022-09-28T10:36:44.043Z,2.95
2022-09-28T10:39:27.444Z,2.20
2022-09-28T10:41:56.643Z,2.58
2022-09-28T10:44:31.784Z,2.25
2022-09-28T10:47:10.109Z,2.63
2022-09-28T10:49:47.076Z,2.70
2022-09-28T10:52:41.971Z,2.47
2022-09-28T10:55:30.947Z,2.67
2022-09-28T10:58:00.649Z,2.63
2022-09-28T11:00:43.827Z,3.53
2022-09-28T11:03:31.765Z,2.58
2022-09-28T11:06:08.667Z,3.25
2022-09-28T11:08:46.025Z,3.25
2022-09-28T11:11:20.923Z,2.97
2022-09-28T11:14:00.766Z,2.33
2022-09-28T11:16:36.405Z,3.30
2022-09-28T11:19:26.466Z,2.85
2022-09-28T11:21:55.921Z,2.60
2022-09-28T11:24:33.184Z,2.65
2022-09-28T11:27:06.008Z,2.75
2022-09-28T11:29:39.990Z,2.55
2022-09-28T11:32:41.103Z,2.75
2022-09-28T11:35:44.446Z,1.92
2022-09-28T11:38:27.245Z,2.75
2022-09-28T11:41:38.926Z,2.00
2022-09-28T11:44:30.947Z,1.42
2022-09-28T11:47:38.931Z,1.63
2022-09-28T11:50:24.820Z,0.77
2022-09-28T11:53:03.043Z,1.08
2022-09-28T11:55:37.664Z,1.80
2022-09-28T11:58:12.648Z,1.23
2022-09-28T12:00:49.406Z,1.70
2022-09-28T12:03:27.429Z,1.25
2022-09-28T12:06:02.319Z,1.48
2022-09-28T12:08:35.747Z,1.15
2022-09-28T12:11:32.642Z,1.08
2022-09-28T12:14:26.599Z,0.95
2022-09-28T12:17:06.700Z,0.65
2022-09-28T12:22:19.741Z,0.80
2022-09-28T12:24:51.120Z,0.70
2022-09-28T12:27:26.381Z,0.98
2022-09-28T12:30:00.521Z,1.25
2022-09-28T12:32:37.642Z,0.85
2022-09-28T12:35:14.092Z,0.90
2022-09-28T12:38:10.431Z,0.82
2022-09-28T12:40:47.392Z,0.95
2022-09-28T12:44:06.401Z,0.80
2022-09-28T12:46:55.483Z,1.05
2022-09-28T12:50:36.189Z,1.10
2022-09-28T12:52:43.752Z,0.70
2022-09-28T12:55:21.141Z,1.05
2022-09-28T12:58:00.560Z,1.02
2022-09-28T13:00:37.139Z,1.05
2022-09-28T13:03:47.204Z,1.20
2022-09-28T13:06:39.799Z,1.38
2022-09-28T13:09:31.583Z,1.25
2022-09-28T13:12:24.643Z,1.15
2022-09-28T13:15:21.089Z,1.05
2022-09-28T13:17:56.692Z,0.95
2022-09-28T13:20:37.174Z,1.10
2022-09-28T13:23:15.902Z,1.40
2022-09-28T13:25:51.154Z,1.63
2022-09-28T13:28:27.050Z,1.30
2022-09-28T13:33:37.070Z,1.50
2022-09-28T13:36:26.711Z,1.25
2022-09-28T13:38:56.134Z,1.13
2022-09-28T13:41:32.010Z,1.20
2022-09-28T13:44:18.136Z,0.80
2022-09-28T13:46:59.007Z,1.23
2022-09-28T13:49:37.951Z,1.52
2022-09-28T13:52:11.049Z,1.50
2022-09-28T13:54:55.835Z,1.00
2022-09-28T13:57:29.675Z,1.17
2022-09-28T14:00:16.929Z,1.30
2022-09-28T14:02:49.522Z,1.40
2022-09-28T14:05:42.267Z,1.20
2022-09-28T14:08:28.246Z,1.15
2022-09-28T14:10:57.891Z,1.75
2022-09-28T14:13:59.822Z,1.02
2022-09-28T14:16:32.556Z,0.90
2022-09-28T14:19:07.448Z,1.20
2022-09-28T14:21:54.322Z,1.25
2022-09-28T14:24:34.964Z,0.98
2022-09-28T14:27:30.194Z,1.10
2022-09-28T14:30:09.453Z,1.25
2022-09-28T14:32:41.613Z,1.27
2022-09-28T14:35:19.086Z,1.08
2022-09-28T14:38:19.885Z,1.70
2022-09-28T14:41:12.970Z,1.35
2022-09-28T14:44:03.885Z,1.05
2022-09-28T14:46:38.236Z,1.08
2022-09-28T14:49:51.522Z,1.20
2022-09-28T14:52:40.643Z,0.73
2022-09-28T14:55:17.265Z,1.15
2022-09-28T14:57:52.803Z,1.13
2022-09-28T15:00:23.575Z,0.93
2022-09-28T15:02:54.206Z,0.90
2022-09-28T15:05:29.874Z,1.20
2022-09-28T15:07:58.612Z,1.73
2022-09-28T15:10:32.520Z,1.70
2022-09-28T15:13:02.845Z,2.15
2022-09-28T15:15:37.337Z,2.22
2022-09-28T15:18:49.334Z,1.90
2022-09-28T15:21:20.821Z,1.83
2022-09-28T15:23:50.727Z,1.92
2022-09-28T15:26:25.347Z,1.90
2022-09-28T15:28:54.138Z,2.35
2022-09-28T15:31:25.727Z,2.03
2022-09-28T15:34:12.604Z,2.38
2022-09-28T15:36:46.603Z,1.90
2022-09-28T15:39:19.167Z,1.80
2022-09-28T15:41:51.472Z,2.75
2022-09-28T15:44:32.523Z,3.10
2022-09-28T15:47:13.225Z,2.78
2022-09-28T15:49:47.089Z,3.05
2022-09-28T15:52:30.415Z,3.58
2022-09-28T15:55:03.163Z,3.28
2022-09-28T15:57:40.359Z,3.22
2022-09-28T16:00:26.751Z,3.38
2022-09-28T16:03:01.898Z,3.33
2022-09-28T16:05:36.191Z,3.13
2022-09-28T16:08:07.235Z,3.20
2022-09-28T16:13:18.043Z,3.08
2022-09-28T16:15:47.166Z,3.28
2022-09-28T16:18:23.705Z,4.18
2022-09-28T16:20:53.797Z,3.08
2022-09-28T16:23:28.507Z,3.53
2022-09-28T16:26:00.726Z,3.63
2022-09-28T16:28:52.113Z,4.03
2022-09-28T16:31:37.096Z,4.38
2022-09-28T16:34:21.293Z,4.40
2022-09-28T16:36:51.040Z,3.63
2022-09-28T16:39:22.728Z,3.90
2022-09-28T16:41:55.853Z,4.03
2022-09-28T16:44:28.686Z,3.72
2022-09-28T16:47:00.409Z,4.55
2022-09-28T16:49:29.813Z,4.45
2022-09-28T16:51:58.331Z,3.78
2022-09-28T16:54:45.846Z,4.78
2022-09-28T16:57:16.472Z,5.07
2022-09-28T16:59:45.120Z,5.32
2022-09-28T17:02:42.151Z,5.82
2022-09-28T17:05:08.193Z,5.60
2022-09-28T17:07:36.803Z,6.75
2022-09-28T17:10:16.747Z,6.00
2022-09-28T17:12:45.366Z,5.82
2022-09-28T17:15:19.726Z,6.05
2022-09-28T17:17:48.801Z,5.10
2022-09-28T17:20:23.309Z,6.00
2022-09-28T17:22:53.350Z,5.60
2022-09-28T17:25:25.347Z,4.72
2022-09-28T17:27:56.809Z,4.90
2022-09-28T17:30:25.988Z,5.18
2022-09-28T17:32:54.707Z,5.15
2022-09-28T17:35:25.102Z,5.03
2022-09-28T17:37:54.193Z,4.75
2022-09-28T17:40:28.647Z,5.18
2022-09-28T17:42:57.986Z,5.03
2022-09-28T17:45:28.887Z,5.07
2022-09-28T17:47:59.289Z,5.20
2022-09-28T17:50:32.668Z,5.47
2022-09-28T17:53:06.066Z,5.53
2022-09-28T17:55:37.826Z,5.60
2022-09-28T17:58:17.530Z,5.47
2022-09-28T18:00:47.926Z,5.65
2022-09-28T18:03:20.009Z,5.93
2022-09-28T18:05:51.087Z,5.97
2022-09-28T18:10:51.666Z,6.78
2022-09-28T18:13:20.348Z,7.65
2022-09-28T18:15:52.109Z,7.97
2022-09-28T18:18:20.668Z,7.47
2022-09-28T18:20:49.047Z,7.35
2022-09-28T18:23:17.545Z,7.32
2022-09-28T18:25:47.335Z,9.00
2022-09-28T18:28:17.125Z,8.93
2022-09-28T18:30:46.943Z,9.02
2022-09-28T18:33:15.880Z,9.00
2022-09-28T18:35:52.708Z,9.65
2022-09-28T18:38:23.245Z,9.43
2022-09-28T18:40:53.081Z,8.32
2022-09-28T18:43:23.051Z,8.43
2022-09-28T18:45:51.770Z,9.20
2022-09-28T18:48:20.227Z,8.15
2022-09-28T18:50:48.903Z,7.72
2022-09-28T18:53:17.920Z,7.40
2022-09-28T18:55:46.378Z,7.03
2022-09-28T18:58:15.160Z,6.85
2022-09-28T19:00:45.664Z,6.90
2022-09-28T19:03:14.559Z,6.88
2022-09-28T19:05:43.823Z,7.55
2022-09-28T19:08:12.499Z,6.90
2022-09-28T19:10:41.023Z,7.70
2022-09-28T19:13:10.043Z,7.35
2022-09-28T19:15:38.761Z,7.05
2022-09-28T19:18:09.868Z,7.40
2022-09-28T19:23:06.782Z,6.53
2022-09-28T19:25:36.599Z,6.32
2022-09-28T19:28:05.181Z,6.13
2022-09-28T19:30:35.025Z,7.10
2022-09-28T19:33:03.684Z,7.13
2022-09-28T19:35:33.689Z,6.68
2022-09-28T19:38:02.239Z,7.47
2022-09-28T19:40:30.830Z,5.80
2022-09-28T19:43:00.015Z,7.00
2022-09-28T19:45:29.419Z,6.10
2022-09-28T19:47:59.552Z,7.57
2022-09-28T19:50:28.777Z,6.90
2022-09-28T19:53:01.980Z,7.00
2022-09-28T19:55:32.062Z,7.57
2022-09-28T19:58:01.999Z,7.20
2022-09-28T20:00:30.677Z,8.05
2022-09-28T20:03:00.198Z,6.97
2022-09-28T20:05:29.457Z,7.70
2022-09-28T20:07:59.557Z,7.03
2022-09-28T20:10:28.062Z,7.63
2022-09-28T20:12:56.646Z,7.25
2022-09-28T20:15:25.404Z,7.63
2022-09-28T20:17:54.327Z,7.43
2022-09-28T20:20:23.022Z,7.45
2022-09-28T20:22:52.482Z,7.20
2022-09-28T20:25:22.448Z,7.50
2022-09-28T20:27:51.184Z,7.63
2022-09-28T20:30:20.526Z,7.55
2022-09-28T20:32:49.750Z,8.18
2022-09-28T20:35:30.299Z,7.43
2022-09-28T20:38:08.152Z,7.60
2022-09-28T20:40:38.736Z,7.05
2022-09-28T20:43:07.402Z,7.22
2022-09-28T20:45:37.243Z,6.93
2022-09-28T20:48:06.725Z,7.15
2022-09-28T20:50:35.578Z,7.60
2022-09-28T20:53:04.102Z,7.22
2022-09-28T20:55:32.622Z,7.78
2022-09-28T20:58:05.344Z,6.88
2022-09-28T21:00:34.714Z,6.63
2022-09-28T21:03:03.368Z,6.68
2022-09-28T21:05:32.167Z,6.15
2022-09-28T21:08:00.837Z,7.15
2022-09-28T21:10:30.541Z,7.43
2022-09-28T21:12:59.025Z,7.10
2022-09-28T21:15:29.067Z,7.20
2022-09-28T21:17:57.616Z,6.57
2022-09-28T21:20:26.222Z,7.25
2022-09-28T21:22:54.768Z,7.13
2022-09-28T21:25:23.439Z,7.28
2022-09-28T21:27:51.924Z,6.72
2022-09-28T21:30:20.546Z,6.70
2022-09-28T21:32:52.499Z,6.88
2022-09-28T21:35:21.102Z,5.97
2022-09-28T21:37:49.925Z,6.60
2022-09-28T21:40:20.171Z,5.97
2022-09-28T21:42:48.865Z,5.90
2022-09-28T21:45:17.616Z,5.97
2022-09-28T21:47:52.919Z,6.45
2022-09-28T21:50:24.341Z,5.60
2022-09-28T21:52:54.340Z,6.10
2022-09-28T21:55:25.299Z,6.05
2022-09-28T22:00:23.858Z,5.38
2022-09-28T22:02:52.862Z,6.22
2022-09-28T22:05:22.902Z,5.85
2022-09-28T22:07:51.658Z,6.13
2022-09-28T22:10:20.305Z,5.90
2022-09-28T22:12:50.297Z,5.75
2022-09-28T22:15:18.855Z,6.80
2022-09-28T22:17:47.363Z,6.85
2022-09-28T22:20:15.997Z,6.78
2022-09-28T22:22:50.141Z,6.35
2022-09-28T22:25:18.808Z,5.80
2022-09-28T22:27:47.351Z,6.57
2022-09-28T22:30:15.946Z,7.07
2022-09-28T22:32:44.372Z,6.18
2022-09-28T22:35:12.931Z,5.55
2022-09-28T22:37:41.379Z,6.30
2022-09-28T22:40:14.048Z,5.97
2022-09-28T22:42:43.057Z,6.25
2022-09-28T22:45:11.909Z,5.88
2022-09-28T22:47:40.463Z,5.90
2022-09-28T22:50:09.549Z,6.57
2022-09-28T22:52:38.107Z,5.72
2022-09-28T22:55:07.405Z,5.32
2022-09-28T22:57:37.308Z,5.05
2022-09-28T23:00:06.704Z,5.07
2022-09-28T23:02:35.140Z,4.63
2022-09-28T23:05:03.569Z,4.63
2022-09-28T23:07:32.199Z,5.07
2022-09-28T23:10:00.787Z,4.50
2022-09-28T23:12:30.649Z,4.30
2022-09-28T23:15:00.680Z,4.32
2022-09-28T23:17:29.126Z,3.65
2022-09-28T23:19:57.688Z,4.43
2022-09-28T23:22:26.110Z,4.38
2022-09-28T23:24:54.688Z,4.28
2022-09-28T23:27:23.174Z,4.00
2022-09-28T23:29:53.979Z,3.88
2022-09-28T23:32:26.546Z,4.45
2022-09-28T23:34:57.171Z,3.53
2022-09-28T23:37:25.700Z,4.00
2022-09-28T23:39:54.480Z,3.80
2022-09-28T23:42:22.970Z,3.83
2022-09-28T23:44:51.429Z,4.22
2022-09-28T23:47:19.843Z,4.28
2022-09-28T23:49:49.762Z,3.72
2022-09-28T23:52:18.357Z,3.92
2022-09-28T23:54:46.899Z,4.07
2022-09-28T23:57:15.329Z,4.03
2022-09-28T23:59:43.794Z,4.10
